Time;durP1;ratioP1;P1;durP2;ratioP2;P2;SDS_P1;SDS_P2;PMS_P1;PMS_P2;Temp;Humidity;BMP_temperature;BMP_pressure;BME280_temperature;BME280_humidity;BME280_pressure;Samples;Min_cycle;Max_cycle;Signal;HPM_P1;HPM_P2
2022/09/02 00:02:23;;;;;;;5.40;4.90;;;;;12.60;94197.00;;;;7391554;19;20157;-71
2022/09/02 00:04:58;;;;;;;5.30;4.70;;;;;12.50;94193.00;;;;7393084;19;20215;-72
2022/09/02 00:07:25;;;;;;;6.55;4.60;;;;;12.40;94190.00;;;;7395538;19;20136;-72
2022/09/02 00:09:53;;;;;;;7.57;5.10;;;;;12.40;94186.00;;;;7393885;19;20222;-74
2022/09/02 00:12:27;;;;;;;6.47;4.80;;;;;12.40;94186.00;;;;7390045;19;20161;-72
2022/09/02 00:14:54;;;;;;;5.70;4.63;;;;;12.30;94182.00;;;;7395213;19;20865;-72
2022/09/02 00:17:22;;;;;;;6.60;5.13;;;;;12.30;94176.00;;;;7391580;19;20529;-72
2022/09/02 00:19:56;;;;;;;5.57;4.85;;;;;12.30;94180.00;;;;7391658;19;20595;-72
2022/09/02 00:22:24;;;;;;;4.82;4.43;;;;;12.30;94173.00;;;;7392055;19;20588;-76
2022/09/02 00:24:52;;;;;;;5.72;4.97;;;;;12.20;94177.00;;;;7391698;19;20121;-72
2022/09/02 00:27:26;;;;;;;5.63;5.03;;;;;12.20;94164.00;;;;7393149;19;20156;-72
2022/09/02 00:29:53;;;;;;;7.55;4.80;;;;;12.10;94168.00;;;;7391892;19;20146;-73
2022/09/02 00:32:21;;;;;;;5.45;4.40;;;;;12.20;94166.00;;;;7390016;19;20149;-73
2022/09/02 00:34:56;;;;;;;5.18;4.78;;;;;12.10;94166.00;;;;7391622;19;20624;-73
2022/09/02 00:37:24;;;;;;;6.15;4.75;;;;;12.10;94165.00;;;;7392247;19;20506;-73
2022/09/02 00:39:53;;;;;;;4.57;4.18;;;;;12.10;94166.00;;;;7389495;19;20141;-73
2022/09/02 00:42:27;;;;;;;4.90;4.40;;;;;12.10;94164.00;;;;7390177;19;20166;-73
2022/09/02 00:44:54;;;;;;;4.78;4.30;;;;;12.10;94159.00;;;;7391986;19;20152;-72
2022/09/02 00:47:22;;;;;;;5.20;4.20;;;;;12.00;94159.00;;;;7393611;19;20176;-74
2022/09/02 00:49:57;;;;;;;4.30;3.90;;;;;12.00;94164.00;;;;7391983;19;20129;-73
2022/09/02 00:52:40;;;;;;;4.97;4.47;;;;;11.90;94156.00;;;;7391492;19;20603;-73
2022/09/02 00:55:18;;;;;;;5.15;4.60;;;;;11.90;94151.00;;;;7392536;19;20156;-73
2022/09/02 00:57:51;;;;;;;4.57;4.18;;;;;11.90;94153.00;;;;7393478;19;20169;-75
2022/09/02 01:00:29;;;;;;;5.32;4.57;;;;;11.80;94160.00;;;;7389879;19;20153;-73
2022/09/02 01:03:05;;;;;;;4.90;4.40;;;;;11.80;94156.00;;;;7388129;19;20200;-72
2022/09/02 01:05:44;;;;;;;5.60;4.50;;;;;11.70;94167.00;;;;7392623;19;20501;-73
2022/09/02 01:08:24;;;;;;;5.90;4.40;;;;;11.60;94164.00;;;;7392392;19;20267;-73
2022/09/02 01:10:59;;;;;;;4.78;4.28;;;;;11.60;94158.00;;;;7392150;19;20643;-73
2022/09/02 01:13:30;;;;;;;4.95;4.55;;;;;11.70;94156.00;;;;7388515;19;20164;-72
2022/09/02 01:16:31;;;;;;;5.22;4.50;;;;;11.60;94154.00;;;;7390227;19;20148;-72
2022/09/02 01:19:37;;;;;;;5.45;4.43;;;;;11.60;94156.00;;;;7393152;19;20133;-73
2022/09/02 01:22:22;;;;;;;5.40;5.00;;;;;11.70;94159.00;;;;7391121;19;20121;-73
2022/09/02 01:25:03;;;;;;;5.05;4.55;;;;;11.70;94154.00;;;;7390535;19;20184;-74
2022/09/02 01:27:31;;;;;;;4.90;4.50;;;;;11.70;94161.00;;;;7390971;19;20146;-73
2022/09/02 01:30:07;;;;;;;5.00;4.10;;;;;11.70;94150.00;;;;7391199;19;20181;-74
2022/09/02 01:32:34;;;;;;;6.75;4.10;;;;;11.60;94157.00;;;;7391777;19;20156;-72
2022/09/02 01:35:03;;;;;;;4.90;4.40;;;;;11.60;94156.00;;;;7391880;19;20121;-72
2022/09/02 01:37:38;;;;;;;7.47;4.10;;;;;11.60;94155.00;;;;7390415;19;20212;-72
2022/09/02 01:40:10;;;;;;;5.50;4.97;;;;;11.60;94156.00;;;;7389741;19;20133;-73
2022/09/02 01:42:40;;;;;;;5.82;4.25;;;;;11.60;94154.00;;;;7392610;19;20148;-72
2022/09/02 01:45:14;;;;;;;4.50;4.10;;;;;11.50;94147.00;;;;7398240;19;20483;-72
2022/09/02 01:47:42;;;;;;;4.53;4.03;;;;;11.60;94146.00;;;;7402474;19;20133;-73
2022/09/02 01:50:09;;;;;;;4.68;4.13;;;;;11.60;94146.00;;;;7399019;19;20141;-72
2022/09/02 01:52:43;;;;;;;6.50;4.43;;;;;11.70;94148.00;;;;7397635;19;20136;-73
2022/09/02 01:55:11;;;;;;;5.25;4.22;;;;;11.70;94146.00;;;;7398870;19;20137;-72
2022/09/02 01:57:39;;;;;;;5.80;4.53;;;;;11.80;94141.00;;;;7399478;19;20149;-73
2022/09/02 02:00:15;;;;;;;4.38;4.03;;;;;11.70;94140.00;;;;7396303;19;20180;-72
2022/09/02 02:02:43;;;;;;;5.22;4.32;;;;;11.70;94137.00;;;;7395496;19;20193;-72
2022/09/02 02:05:12;;;;;;;5.05;3.70;;;;;11.70;94133.00;;;;7398756;19;20597;-73
2022/09/02 02:07:47;;;;;;;3.95;3.53;;;;;11.80;94130.00;;;;7400448;19;20153;-72
2022/09/02 02:10:17;;;;;;;4.43;4.03;;;;;11.70;94137.00;;;;7393865;19;20141;-74
2022/09/02 02:12:45;;;;;;;3.92;3.55;;;;;11.70;94138.00;;;;7395083;19;20153;-73
2022/09/02 02:15:20;;;;;;;3.95;3.65;;;;;11.60;94136.00;;;;7399408;19;20502;-73
2022/09/02 02:17:54;;;;;;;3.75;3.45;;;;;11.60;94136.00;;;;7392243;19;20619;-73
2022/09/02 02:20:29;;;;;;;4.75;3.95;;;;;11.60;94136.00;;;;7399417;19;20157;-73
2022/09/02 02:22:56;;;;;;;4.07;3.60;;;;;11.70;94140.00;;;;7397846;19;20129;-74
2022/09/02 02:25:24;;;;;;;5.60;3.63;;;;;11.60;94127.00;;;;7398819;19;20124;-73
2022/09/02 02:27:58;;;;;;;4.38;3.97;;;;;11.50;94129.00;;;;7395373;19;20149;-72
2022/09/02 02:30:28;;;;;;;4.85;3.88;;;;;11.60;94122.00;;;;7396131;19;20125;-72
2022/09/02 02:32:56;;;;;;;4.53;4.07;;;;;11.50;94134.00;;;;7395115;19;20217;-72
2022/09/02 02:35:31;;;;;;;4.65;3.78;;;;;11.50;94124.00;;;;7398765;19;20180;-73
2022/09/02 02:37:59;;;;;;;4.53;3.85;;;;;11.50;94125.00;;;;7396194;19;20668;-73
2022/09/02 02:40:30;;;;;;;4.65;4.07;;;;;11.50;94113.00;;;;7394708;19;20129;-73
2022/09/02 02:43:04;;;;;;;3.97;3.58;;;;;11.50;94122.00;;;;7398715;19;20132;-74
2022/09/02 02:45:32;;;;;;;4.18;3.80;;;;;11.40;94125.00;;;;7398205;19;20604;-72
2022/09/02 02:47:59;;;;;;;4.68;3.60;;;;;11.40;94124.00;;;;7393935;19;20129;-72
2022/09/02 02:50:33;;;;;;;5.18;3.70;;;;;11.30;94118.00;;;;7396712;19;20163;-72
2022/09/02 02:53:01;;;;;;;4.00;3.63;;;;;11.20;94120.00;;;;7397225;19;20187;-74
2022/09/02 02:55:28;;;;;;;3.90;3.45;;;;;11.20;94124.00;;;;7396513;19;20145;-73
2022/09/02 02:58:03;;;;;;;4.22;3.75;;;;;11.10;94122.00;;;;7396204;19;20141;-73
2022/09/02 03:00:32;;;;;;;4.18;3.33;;;;;11.10;94118.00;;;;7395320;19;20133;-73
2022/09/02 03:03:06;;;;;;;4.10;3.40;;;;;11.10;94121.00;;;;7395369;19;20203;-72
2022/09/02 03:05:40;;;;;;;5.95;3.85;;;;;11.00;94122.00;;;;7397230;19;20158;-72
2022/09/02 03:08:09;;;;;;;4.35;3.90;;;;;11.00;94118.00;;;;7392828;19;20143;-73
2022/09/02 03:10:39;;;;;;;3.80;3.40;;;;;11.00;94118.00;;;;7395302;19;20141;-73
2022/09/02 03:13:14;;;;;;;4.97;3.83;;;;;11.00;94120.00;;;;7394422;19;20152;-72
2022/09/02 03:15:48;;;;;;;5.57;3.85;;;;;11.00;94120.00;;;;7395466;19;20157;-72
2022/09/02 03:18:30;;;;;;;4.15;3.63;;;;;10.90;94114.00;;;;7392583;19;20478;-73
2022/09/02 03:20:58;;;;;;;5.65;3.80;;;;;10.80;94118.00;;;;7398370;19;20499;-73
2022/09/02 03:23:32;;;;;;;4.25;3.90;;;;;10.80;94123.00;;;;7396256;19;20485;-72
2022/09/02 03:25:59;;;;;;;5.07;4.03;;;;;10.80;94116.00;;;;7397079;19;20121;-71
2022/09/02 03:28:27;;;;;;;4.32;3.92;;;;;10.80;94110.00;;;;7394711;19;20651;-73
2022/09/02 03:31:01;;;;;;;4.05;3.72;;;;;10.70;94114.00;;;;7395839;19;20239;-72
2022/09/02 03:33:28;;;;;;;4.73;3.90;;;;;10.80;94114.00;;;;7394441;19;20149;-71
2022/09/02 03:35:56;;;;;;;4.88;3.65;;;;;10.90;94106.00;;;;7396701;19;20465;-72
2022/09/02 03:38:30;;;;;;;4.15;3.75;;;;;10.90;94121.00;;;;7396244;19;20199;-74
2022/09/02 03:40:57;;;;;;;6.72;3.85;;;;;11.00;94118.00;;;;7394574;19;20183;-73
2022/09/02 03:43:25;;;;;;;4.40;4.00;;;;;11.10;94110.00;;;;7394339;19;20661;-73
2022/09/02 03:45:59;;;;;;;4.53;3.90;;;;;11.20;94109.00;;;;7394373;19;20596;-73
2022/09/02 03:48:28;;;;;;;4.35;3.95;;;;;11.30;94111.00;;;;7394113;19;20153;-72
2022/09/02 03:50:55;;;;;;;4.15;3.75;;;;;11.30;94106.00;;;;7395359;19;20136;-71
2022/09/02 03:53:29;;;;;;;5.28;3.78;;;;;11.30;94110.00;;;;7394029;19;20152;-73
2022/09/02 03:55:57;;;;;;;4.05;3.65;;;;;11.40;94109.00;;;;7392586;19;20165;-71
2022/09/02 03:58:25;;;;;;;4.00;3.60;;;;;11.40;94107.00;;;;7392599;19;20152;-71
2022/09/02 04:01:00;;;;;;;4.25;3.55;;;;;11.40;94102.00;;;;7395186;19;20651;-72
2022/09/02 04:03:27;;;;;;;5.30;4.07;;;;;11.60;94100.00;;;;7393833;19;20148;-74
2022/09/02 04:05:55;;;;;;;3.65;3.35;;;;;11.60;94110.00;;;;7394312;19;20156;-72
2022/09/02 04:08:29;;;;;;;4.18;3.15;;;;;11.40;94106.00;;;;7391380;19;20181;-71
2022/09/02 04:10:56;;;;;;;4.55;3.50;;;;;11.30;94108.00;;;;7393132;19;20156;-71
2022/09/02 04:13:24;;;;;;;4.78;3.40;;;;;11.40;94101.00;;;;7392289;19;20133;-73
2022/09/02 04:16:04;;;;;;;6.35;3.40;;;;;11.40;94103.00;;;;7391130;19;20491;-73
2022/09/02 04:18:43;;;;;;;3.40;2.78;;;;;11.40;94102.00;;;;7393523;19;20169;-71
2022/09/02 04:21:18;;;;;;;4.07;2.92;;;;;11.40;94098.00;;;;7393914;19;20643;-72
2022/09/02 04:23:46;;;;;;;2.85;2.55;;;;;11.40;94105.00;;;;7394521;19;20156;-72
2022/09/02 04:26:15;;;;;;;2.53;2.30;;;;;11.50;94100.00;;;;7391039;19;20187;-72
2022/09/02 04:28:50;;;;;;;3.33;2.75;;;;;11.50;94094.00;;;;7392264;19;20144;-73
2022/09/02 04:31:19;;;;;;;3.60;2.45;;;;;11.50;94103.00;;;;7392251;19;20152;-74
2022/09/02 04:33:48;;;;;;;2.88;2.67;;;;;11.50;94090.00;;;;7392409;19;20151;-71
2022/09/02 04:36:23;;;;;;;3.90;2.40;;;;;11.40;94100.00;;;;7390873;19;20156;-72
2022/09/02 04:38:52;;;;;;;4.80;2.40;;;;;11.40;94091.00;;;;7391753;19;20208;-72
2022/09/02 04:41:23;;;;;;;3.45;2.50;;;;;11.50;94099.00;;;;7394078;19;20158;-72
2022/09/02 04:43:59;;;;;;;2.95;2.40;;;;;11.60;94095.00;;;;7392739;19;20619;-72
2022/09/02 04:46:27;;;;;;;2.85;2.10;;;;;11.60;94097.00;;;;7390704;19;20145;-73
2022/09/02 04:49:02;;;;;;;2.88;2.22;;;;;11.60;94096.00;;;;7391918;19;20144;-73
2022/09/02 04:51:37;;;;;;;2.80;2.00;;;;;11.60;94096.00;;;;7391304;19;20156;-72
2022/09/02 04:54:05;;;;;;;2.50;2.30;;;;;11.50;94089.00;;;;7388625;19;20169;-74
2022/09/02 04:56:32;;;;;;;2.78;2.10;;;;;11.60;94092.00;;;;7391374;19;20136;-73
2022/09/02 04:59:07;;;;;;;3.05;2.03;;;;;11.70;94094.00;;;;7392514;19;20136;-72
2022/09/02 05:01:36;;;;;;;2.92;2.10;;;;;11.60;94092.00;;;;7391157;19;20212;-73
2022/09/02 05:04:08;;;;;;;2.50;2.30;;;;;11.60;94098.00;;;;7388721;19;20180;-72
2022/09/02 05:06:42;;;;;;;2.17;1.98;;;;;11.50;94100.00;;;;7393186;19;20607;-72
2022/09/02 05:09:11;;;;;;;2.25;2.00;;;;;11.40;94085.00;;;;7391963;19;20137;-72
2022/09/02 05:11:39;;;;;;;3.55;2.40;;;;;11.50;94090.00;;;;7392205;19;20144;-72
2022/09/02 05:14:15;;;;;;;2.60;2.10;;;;;11.40;94080.00;;;;7389217;19;20148;-72
2022/09/02 05:16:52;;;;;;;4.03;2.20;;;;;11.40;94078.00;;;;7390455;19;20176;-71
2022/09/02 05:19:33;;;;;;;2.65;1.90;;;;;11.40;94079.00;;;;7399871;19;20145;-71
2022/09/02 05:22:00;;;;;;;3.78;2.10;;;;;11.50;94080.00;;;;7398349;19;20734;-71
2022/09/02 05:24:34;;;;;;;2.30;2.10;;;;;11.50;94083.00;;;;7398898;19;20149;-71
2022/09/02 05:27:01;;;;;;;3.00;2.10;;;;;11.50;94085.00;;;;7400155;19;20149;-71
2022/09/02 05:29:29;;;;;;;4.10;2.20;;;;;11.60;94084.00;;;;7397638;19;20157;-72
2022/09/02 05:32:03;;;;;;;3.78;2.30;;;;;11.60;94081.00;;;;7398139;19;20136;-71
2022/09/02 05:34:32;;;;;;;2.30;2.10;;;;;11.80;94086.00;;;;7396816;19;20141;-73
2022/09/02 05:37:00;;;;;;;2.97;2.15;;;;;11.90;94089.00;;;;7398508;19;20152;-72
2022/09/02 05:39:35;;;;;;;4.32;2.13;;;;;12.00;94084.00;;;;7398080;19;20149;-72
2022/09/02 05:42:02;;;;;;;3.25;2.15;;;;;12.10;94091.00;;;;7399127;19;20175;-73
2022/09/02 05:44:30;;;;;;;2.92;2.40;;;;;12.30;94092.00;;;;7397789;19;20588;-71
2022/09/02 05:47:05;;;;;;;2.45;2.20;;;;;12.40;94087.00;;;;7397084;19;20726;-71
2022/09/02 05:49:33;;;;;;;5.05;2.30;;;;;12.50;94092.00;;;;7399376;19;20153;-71
2022/09/02 05:52:04;;;;;;;3.35;2.30;;;;;12.60;94099.00;;;;7397244;19;20564;-71
2022/09/02 05:54:39;;;;;;;3.03;2.38;;;;;12.70;94096.00;;;;7393487;19;20132;-71
2022/09/02 05:57:11;;;;;;;2.90;2.35;;;;;12.80;94102.00;;;;7396957;19;20156;-72
2022/09/02 05:59:47;;;;;;;2.60;2.22;;;;;12.80;94092.00;;;;7395762;19;20228;-72
2022/09/02 06:02:18;;;;;;;3.38;2.28;;;;;12.90;94088.00;;;;7396474;19;20684;-73
2022/09/02 06:05:18;;;;;;;2.35;2.15;;;;;13.00;94092.00;;;;7398166;19;20567;-72
2022/09/02 06:07:52;;;;;;;3.10;2.30;;;;;13.10;94086.00;;;;7397127;19;20152;-71
2022/09/02 06:10:26;;;;;;;3.88;2.55;;;;;13.30;94095.00;;;;7395369;19;20526;-71
2022/09/02 06:12:54;;;;;;;3.30;2.47;;;;;13.30;94088.00;;;;7397393;19;20505;-71
2022/09/02 06:15:27;;;;;;;2.90;2.33;;;;;13.40;94092.00;;;;7388809;19;20169;-72
2022/09/02 06:18:08;;;;;;;3.25;2.38;;;;;13.50;94090.00;;;;7394057;19;20161;-74
2022/09/02 06:20:46;;;;;;;2.28;2.05;;;;;13.60;94085.00;;;;7393048;19;20153;-73
2022/09/02 06:23:20;;;;;;;2.38;2.17;;;;;13.70;94093.00;;;;7395864;19;20631;-73
2022/09/02 06:25:50;;;;;;;6.18;2.10;;;;;13.80;94094.00;;;;7395049;19;20129;-73
2022/09/02 06:28:17;;;;;;;2.90;2.05;;;;;13.70;94084.00;;;;7395693;19;20152;-74
2022/09/02 06:30:51;;;;;;;3.75;2.60;;;;;13.80;94085.00;;;;7392494;19;20615;-74
2022/09/02 06:33:18;;;;;;;2.80;2.28;;;;;13.90;94093.00;;;;7396687;19;20541;-74
2022/09/02 06:35:46;;;;;;;2.30;2.10;;;;;14.10;94095.00;;;;7394509;19;20149;-72
2022/09/02 06:38:20;;;;;;;3.50;2.47;;;;;14.50;94082.00;;;;7394316;19;20177;-72
2022/09/02 06:40:51;;;;;;;4.88;2.45;;;;;14.60;94088.00;;;;7394734;19;20165;-71
2022/09/02 06:43:21;;;;;;;3.28;2.45;;;;;14.70;94087.00;;;;7359067;19;20892;-73
2022/09/02 06:46:14;;;;;;;2.65;2.30;;;;;14.80;94089.00;;;;7348773;19;20156;-72
2022/09/02 06:48:42;;;;;;;4.85;2.38;;;;;14.80;94090.00;;;;7396347;19;20133;-74
2022/09/02 06:51:29;;;;;;;6.20;2.30;;;;;14.80;94090.00;;;;7396150;19;20139;-70
2022/09/02 06:53:57;;;;;;;3.15;2.20;;;;;14.90;94087.00;;;;7393792;19;20124;-71
2022/09/02 06:56:32;;;;;;;2.95;2.25;;;;;15.00;94081.00;;;;7392031;19;20167;-73
2022/09/02 06:58:59;;;;;;;5.28;2.60;;;;;15.20;94082.00;;;;7396388;19;20152;-73
2022/09/02 07:01:30;;;;;;;6.32;2.15;;;;;15.20;94091.00;;;;7395577;19;20568;-72
2022/09/02 07:06:54;;;;;;;2.60;2.17;;;;;15.40;94087.00;;;;7393980;19;20159;-73
2022/09/02 07:09:32;;;;;;;5.68;2.38;;;;;15.30;94081.00;;;;7392853;19;20132;-72
2022/09/02 07:12:01;;;;;;;3.10;2.30;;;;;15.30;94081.00;;;;7392998;19;20187;-73
2022/09/02 07:14:35;;;;;;;5.65;2.30;;;;;15.50;94079.00;;;;7394924;19;20216;-72
2022/09/02 07:17:20;;;;;;;4.00;2.28;;;;;15.60;94078.00;;;;7391790;19;20157;-73
2022/09/02 07:19:58;;;;;;;5.80;2.50;;;;;15.60;94076.00;;;;7392494;19;20171;-73
2022/09/02 07:22:32;;;;;;;4.45;2.22;;;;;15.80;94071.00;;;;7394089;19;20152;-74
2022/09/02 07:25:00;;;;;;;2.55;2.30;;;;;15.80;94069.00;;;;7393425;19;20161;-73
2022/09/02 07:27:28;;;;;;;2.72;1.90;;;;;15.90;94071.00;;;;7394804;19;20144;-74
2022/09/02 07:30:03;;;;;;;2.17;1.98;;;;;16.00;94069.00;;;;7392846;19;20157;-73
2022/09/02 07:32:31;;;;;;;2.50;2.00;;;;;16.30;94065.00;;;;7393263;19;20166;-73
2022/09/02 07:34:59;;;;;;;3.67;2.00;;;;;16.50;94071.00;;;;7391243;19;20161;-74
2022/09/02 07:37:33;;;;;;;2.50;2.30;;;;;16.70;94076.00;;;;7395005;19;20148;-73
2022/09/02 07:40:07;;;;;;;10.48;2.42;;;;;16.80;94076.00;;;;7389963;19;20170;-73
2022/09/02 07:42:42;;;;;;;2.38;2.15;;;;;16.90;94065.00;;;;7389770;19;20135;-74
2022/09/02 07:45:11;;;;;;;2.63;2.42;;;;;17.10;94064.00;;;;7391701;19;20185;-74
2022/09/02 07:47:38;;;;;;;2.00;1.83;;;;;16.90;94070.00;;;;7390370;19;20159;-73
2022/09/02 07:50:12;;;;;;;3.63;2.00;;;;;17.10;94069.00;;;;7390166;19;20192;-74
2022/09/02 07:52:48;;;;;;;2.55;1.80;;;;;17.20;94076.00;;;;7391228;19;20171;-73
2022/09/02 07:55:23;;;;;;;7.72;2.40;;;;;17.50;94066.00;;;;7391600;19;20151;-73
2022/09/02 07:57:53;;;;;;;2.20;2.00;;;;;17.40;94062.00;;;;7391261;19;20215;-73
2022/09/02 08:00:26;;;;;;;2.53;1.92;;;;;17.40;94061.00;;;;7389986;19;21423;-75
2022/09/02 08:03:00;;;;;;;2.60;2.05;;;;;17.80;94060.00;;;;7389554;19;20180;-73
2022/09/02 08:05:30;;;;;;;3.88;2.22;;;;;18.00;94069.00;;;;7393982;19;20156;-73
2022/09/02 08:07:59;;;;;;;3.70;1.60;;;;;18.00;94065.00;;;;7391038;19;20132;-73
2022/09/02 08:10:35;;;;;;;2.30;2.00;;;;;18.00;94065.00;;;;7390015;19;20600;-74
2022/09/02 08:13:05;;;;;;;2.60;2.03;;;;;18.20;94066.00;;;;7390765;19;20223;-74
2022/09/02 08:15:34;;;;;;;4.53;1.90;;;;;18.40;94072.00;;;;7392850;19;20749;-74
2022/09/02 08:18:14;;;;;;;4.30;2.00;;;;;18.60;94065.00;;;;7391333;19;20156;-75
2022/09/02 08:20:49;;;;;;;4.75;2.33;;;;;18.50;94071.00;;;;7391293;19;20159;-72
2022/09/02 08:23:23;;;;;;;2.33;1.80;;;;;18.70;94072.00;;;;7393048;19;20155;-73
2022/09/02 08:26:04;;;;;;;9.82;2.35;;;;;18.60;94076.00;;;;7391454;19;20156;-74
2022/09/02 08:28:38;;;;;;;3.28;2.20;;;;;18.70;94074.00;;;;7392634;19;20481;-74
2022/09/02 08:31:07;;;;;;;5.28;2.00;;;;;18.90;94069.00;;;;7392136;19;20227;-73
2022/09/02 08:33:35;;;;;;;3.95;1.90;;;;;18.80;94078.00;;;;7389470;19;20147;-74
2022/09/02 08:36:10;;;;;;;3.55;2.17;;;;;19.20;94075.00;;;;7391431;19;20152;-75
2022/09/02 08:38:38;;;;;;;3.95;1.90;;;;;19.20;94072.00;;;;7390359;19;20486;-75
2022/09/02 08:41:37;;;;;;;2.95;1.77;;;;;19.40;94067.00;;;;7391496;19;20161;-73
2022/09/02 08:44:19;;;;;;;2.50;1.73;;;;;19.50;94068.00;;;;7390483;19;20152;-74
2022/09/02 08:46:52;;;;;;;3.95;1.73;;;;;19.80;94061.00;;;;7389802;19;20222;-75
2022/09/02 08:49:37;;;;;;;3.40;1.48;;;;;20.10;94059.00;;;;7390337;19;20136;-74
2022/09/02 08:52:05;;;;;;;5.53;1.60;;;;;20.10;94057.00;;;;7392171;19;20604;-75
2022/09/02 08:54:51;;;;;;;2.10;1.58;;;;;20.40;94053.00;;;;7391982;19;20143;-74
2022/09/02 08:57:19;;;;;;;3.90;1.30;;;;;20.40;94059.00;;;;7392319;19;20129;-76
2022/09/02 08:59:59;;;;;;;1.85;1.40;;;;;20.70;94056.00;;;;7391559;19;20481;-74
2022/09/02 09:03:03;;;;;;;4.30;1.67;;;;;21.00;94048.00;;;;7387086;19;20128;-77
2022/09/02 09:05:53;;;;;;;3.53;1.55;;;;;20.80;94062.00;;;;7393942;19;20579;-74
2022/09/02 09:08:40;;;;;;;3.47;1.40;;;;;20.70;94055.00;;;;7391891;19;20600;-74
2022/09/02 09:11:32;;;;;;;7.07;2.60;;;;;20.50;94053.00;;;;7390621;19;20148;-74
2022/09/02 09:14:06;;;;;;;2.85;1.73;;;;;20.70;94048.00;;;;7390989;19;20164;-75
2022/09/02 09:17:00;;;;;;;4.20;1.60;;;;;20.60;94056.00;;;;7387085;19;20176;-74
2022/09/02 09:19:53;;;;;;;4.32;1.70;;;;;20.50;94048.00;;;;7391196;19;20136;-74
2022/09/02 09:22:44;;;;;;;4.10;1.30;;;;;20.60;94051.00;;;;7389244;19;20645;-75
2022/09/02 09:25:15;;;;;;;3.22;1.50;;;;;20.90;94044.00;;;;7392961;19;20126;-75
2022/09/02 09:27:49;;;;;;;2.40;1.50;;;;;20.70;94051.00;;;;7391181;19;20160;-75
2022/09/02 09:30:17;;;;;;;4.15;1.80;;;;;20.70;94047.00;;;;7390032;19;20140;-76
2022/09/02 09:32:59;;;;;;;1.98;1.77;;;;;20.80;94049.00;;;;7391846;19;20156;-76
2022/09/02 09:35:55;;;;;;;2.30;1.65;;;;;20.90;94053.00;;;;7392491;19;20156;-74
2022/09/02 09:38:31;;;;;;;3.42;1.52;;;;;21.10;94058.00;;;;7390863;19;20145;-74
2022/09/02 09:41:19;;;;;;;3.78;1.50;;;;;21.30;94053.00;;;;7388635;19;20157;-74
2022/09/02 09:43:53;;;;;;;5.03;1.73;;;;;21.10;94051.00;;;;7389269;19;20149;-74
2022/09/02 09:46:33;;;;;;;4.80;2.08;;;;;21.20;94051.00;;;;7388151;19;20632;-73
2022/09/02 09:49:01;;;;;;;2.38;1.40;;;;;21.30;94048.00;;;;7389105;19;20147;-73
2022/09/02 09:51:51;;;;;;;6.82;1.60;;;;;21.50;94037.00;;;;7392469;19;20136;-74
2022/09/02 09:54:18;;;;;;;2.35;1.70;;;;;21.70;94036.00;;;;7389388;19;20145;-73
2022/09/02 09:56:53;;;;;;;3.28;1.85;;;;;21.50;94029.00;;;;7388107;19;20153;-73
2022/09/02 09:59:55;;;;;;;3.78;1.77;;;;;21.10;94028.00;;;;7390654;19;20147;-75
2022/09/02 10:02:30;;;;;;;1.65;1.38;;;;;21.30;94035.00;;;;7385865;19;20160;-74
2022/09/02 10:05:36;;;;;;;2.47;1.55;;;;;21.40;94037.00;;;;7392775;19;20208;-75
2022/09/02 10:08:14;;;;;;;4.68;1.77;;;;;21.40;94032.00;;;;7397771;19;20487;-73
2022/09/02 10:10:56;;;;;;;1.80;1.30;;;;;21.70;94033.00;;;;7398140;19;20472;-73
2022/09/02 10:13:32;;;;;;;1.83;1.48;;;;;21.70;94031.00;;;;7399977;19;20603;-74
2022/09/02 10:16:29;;;;;;;4.05;1.30;;;;;21.70;94028.00;;;;7393564;19;20616;-75
2022/09/02 10:19:25;;;;;;;2.25;1.58;;;;;22.20;94038.00;;;;7394046;19;20152;-74
2022/09/02 10:22:20;;;;;;;1.50;1.40;;;;;22.20;94033.00;;;;7396746;19;20186;-75
2022/09/02 10:25:25;;;;;;;1.48;1.38;;;;;22.10;94029.00;;;;7397729;19;20179;-74
2022/09/02 10:28:16;;;;;;;3.78;1.65;;;;;22.00;94024.00;;;;7394833;19;20200;-71
2022/09/02 10:30:50;;;;;;;2.63;1.90;;;;;22.70;94024.00;;;;7399034;19;20192;-76
2022/09/02 10:33:56;;;;;;;2.67;1.60;;;;;22.50;94018.00;;;;7395519;19;20145;-73
2022/09/02 10:36:40;;;;;;;1.83;1.55;;;;;22.50;94014.00;;;;7392500;19;20173;-72
2022/09/02 10:39:15;;;;;;;2.05;1.67;;;;;22.20;94018.00;;;;7395488;19;20156;-74
2022/09/02 10:41:52;;;;;;;2.45;1.80;;;;;22.80;94008.00;;;;7389590;19;20137;-73
2022/09/02 10:44:30;;;;;;;3.50;1.40;;;;;22.60;94007.00;;;;7390018;19;20595;-72
2022/09/02 10:47:20;;;;;;;5.45;1.65;;;;;22.70;94009.00;;;;7395053;19;20165;-73
2022/09/02 10:50:10;;;;;;;3.10;1.40;;;;;22.80;94010.00;;;;7394793;19;20220;-72
2022/09/02 10:53:03;;;;;;;2.67;1.27;;;;;22.60;94002.00;;;;7396059;19;20148;-74
2022/09/02 10:55:41;;;;;;;2.25;1.50;;;;;22.70;93999.00;;;;7392423;19;20489;-72
2022/09/02 10:58:48;;;;;;;5.57;1.58;;;;;22.80;93999.00;;;;7393887;19;20148;-73
2022/09/02 11:01:24;;;;;;;2.95;1.42;;;;;22.80;93994.00;;;;7394355;19;20148;-74
2022/09/02 11:04:36;;;;;;;2.33;1.80;;;;;22.70;93995.00;;;;7394564;19;20550;-74
2022/09/02 11:07:09;;;;;;;4.22;1.98;;;;;23.00;93988.00;;;;7396797;19;20133;-74
2022/09/02 11:09:54;;;;;;;2.90;1.77;;;;;23.40;93985.00;;;;7395824;19;20149;-74
2022/09/02 11:12:38;;;;;;;1.67;1.45;;;;;23.30;93984.00;;;;7396647;19;20174;-74
2022/09/02 11:15:31;;;;;;;3.05;1.63;;;;;23.20;93985.00;;;;7392967;19;20167;-75
2022/09/02 11:18:32;;;;;;;2.00;1.52;;;;;23.20;93980.00;;;;7393590;19;20145;-75
2022/09/02 11:21:32;;;;;;;9.15;1.80;;;;;23.70;93974.00;;;;7390521;19;20154;-74
2022/09/02 11:24:09;;;;;;;1.90;1.70;;;;;23.30;93974.00;;;;7393436;19;20149;-74
2022/09/02 11:26:48;;;;;;;2.05;1.80;;;;;23.60;93973.00;;;;7394296;19;20639;-75
2022/09/02 11:29:53;;;;;;;1.95;1.60;;;;;23.50;93982.00;;;;7395494;19;20611;-74
2022/09/02 11:33:10;;;;;;;2.85;1.20;;;;;23.50;93983.00;;;;7393409;19;20616;-73
2022/09/02 11:35:38;;;;;;;1.67;1.58;;;;;23.50;93974.00;;;;7391585;19;20660;-73
2022/09/02 11:38:32;;;;;;;1.55;1.45;;;;;23.80;93972.00;;;;7393612;19;20830;-74
2022/09/02 11:41:10;;;;;;;2.50;1.48;;;;;23.90;93970.00;;;;7394098;19;20154;-73
2022/09/02 11:44:15;;;;;;;1.67;1.33;;;;;24.20;93976.00;;;;7394804;19;20659;-72
2022/09/02 11:47:01;;;;;;;2.83;1.70;;;;;24.00;93985.00;;;;7393690;19;20121;-73
2022/09/02 11:49:54;;;;;;;3.67;1.50;;;;;23.90;93986.00;;;;7395266;19;20478;-73
2022/09/02 11:52:40;;;;;;;3.15;1.55;;;;;23.80;93977.00;;;;7392357;19;20161;-72
2022/09/02 11:55:45;;;;;;;1.48;1.38;;;;;24.10;93988.00;;;;7393448;19;20162;-71
2022/09/02 11:58:30;;;;;;;3.28;1.67;;;;;24.50;93974.00;;;;7392101;19;20125;-73
2022/09/02 12:01:30;;;;;;;3.22;2.03;;;;;24.80;93971.00;;;;7392891;19;20153;-73
2022/09/02 12:04:12;;;;;;;2.72;1.60;;;;;25.20;93974.00;;;;7392579;19;20164;-72
2022/09/02 12:07:07;;;;;;;5.30;1.67;;;;;25.10;93975.00;;;;7393256;19;20152;-73
2022/09/02 12:09:50;;;;;;;2.95;1.40;;;;;24.70;93980.00;;;;7395539;19;20133;-74
2022/09/02 12:12:38;;;;;;;2.35;1.50;;;;;24.80;93970.00;;;;7391340;19;20182;-72
2022/09/02 12:15:15;;;;;;;1.75;1.30;;;;;25.10;93971.00;;;;7392354;19;20153;-74
2022/09/02 12:18:03;;;;;;;4.05;1.60;;;;;25.00;93970.00;;;;7391067;19;20208;-73
2022/09/02 12:20:38;;;;;;;5.22;1.40;;;;;24.70;93972.00;;;;7391652;19;20592;-74
2022/09/02 12:23:47;;;;;;;3.35;1.50;;;;;25.30;93977.00;;;;7394481;19;20129;-72
2022/09/02 12:26:50;;;;;;;5.03;1.50;;;;;25.30;93976.00;;;;7391394;19;20161;-73
2022/09/02 12:29:24;;;;;;;3.40;1.30;;;;;25.30;93977.00;;;;7393009;19;20587;-72
2022/09/02 12:31:53;;;;;;;3.63;1.30;;;;;24.90;93968.00;;;;7392202;19;20169;-71
2022/09/02 12:34:24;;;;;;;1.95;1.23;;;;;24.70;93971.00;;;;7392180;19;20133;-72
2022/09/02 12:37:00;;;;;;;2.28;1.30;;;;;24.80;93965.00;;;;7390451;19;20144;-71
2022/09/02 12:39:27;;;;;;;2.55;1.60;;;;;24.90;93960.00;;;;7395039;19;20163;-71
2022/09/02 12:41:54;;;;;;;1.50;1.40;;;;;25.00;93954.00;;;;7389875;19;20604;-71
2022/09/02 12:44:50;;;;;;;3.03;1.67;;;;;24.90;93954.00;;;;7391136;19;20142;-71
2022/09/02 12:47:45;;;;;;;1.60;1.50;;;;;25.20;93958.00;;;;7391896;19;20174;-74
2022/09/02 12:50:27;;;;;;;1.30;1.20;;;;;24.80;93950.00;;;;7389105;19;20136;-72
2022/09/02 12:53:23;;;;;;;1.85;1.52;;;;;24.90;93945.00;;;;7391210;19;20893;-73
2022/09/02 12:56:01;;;;;;;2.47;1.42;;;;;24.80;93944.00;;;;7389240;19;20148;-71
2022/09/02 12:58:41;;;;;;;9.20;1.85;;;;;24.80;93946.00;;;;7391786;19;20596;-72
2022/09/02 13:01:33;;;;;;;3.88;1.30;;;;;25.30;93943.00;;;;7392955;19;20595;-72
2022/09/02 13:04:13;;;;;;;3.47;1.45;;;;;25.40;93926.00;;;;7388175;19;20177;-74
2022/09/02 13:06:56;;;;;;;5.18;1.42;;;;;25.30;93923.00;;;;7390535;19;20141;-71
2022/09/02 13:09:50;;;;;;;1.40;1.30;;;;;25.00;93921.00;;;;7391406;19;20450;-73